sensor_id;sensor_type;location;lat;lon;timestamp;pressure;altitude;pressure_sealevel;temperature;humidity
21276;BME280;36472;52.170;20.884;2023-04-20T00:00:22;100778.91;;;10.89;81.68
21276;BME280;36472;52.170;20.884;2023-04-20T00:03:13;100781.91;;;10.82;81.49
21276;BME280;36472;52.170;20.884;2023-04-20T00:05:44;100773.34;;;10.79;81.02
21276;BME280;36472;52.170;20.884;2023-04-20T00:08:15;100777.03;;;10.76;81.21
21276;BME280;36472;52.170;20.884;2023-04-20T00:10:45;100769.50;;;10.70;80.89
21276;BME280;36472;52.170;20.884;2023-04-20T00:13:14;100763.59;;;10.66;81.61
21276;BME280;36472;52.170;20.884;2023-04-20T00:15:43;100768.19;;;10.63;81.32
21276;BME280;36472;52.170;20.884;2023-04-20T00:18:13;100766.78;;;10.57;81.05
21276;BME280;36472;52.170;20.884;2023-04-20T00:20:42;100760.66;;;10.57;81.79
21276;BME280;36472;52.170;20.884;2023-04-20T00:23:11;100764.16;;;10.57;81.35
21276;BME280;36472;52.170;20.884;2023-04-20T00:25:40;100764.97;;;10.58;81.85
21276;BME280;36472;52.170;20.884;2023-04-20T00:28:09;100761.59;;;10.56;81.55
21276;BME280;36472;52.170;20.884;2023-04-20T00:30:40;100770.31;;;10.56;82.21
21276;BME280;36472;52.170;20.884;2023-04-20T00:33:09;100769.50;;;10.56;82.18
21276;BME280;36472;52.170;20.884;2023-04-20T00:35:39;100769.56;;;10.54;82.36
21276;BME280;36472;52.170;20.884;2023-04-20T00:38:08;100770.59;;;10.52;82.01
21276;BME280;36472;52.170;20.884;2023-04-20T00:40:37;100763.84;;;10.47;81.83
21276;BME280;36472;52.170;20.884;2023-04-20T00:43:10;100764.50;;;10.51;81.87
21276;BME280;36472;52.170;20.884;2023-04-20T00:45:39;100767.13;;;10.51;81.77
21276;BME280;36472;52.170;20.884;2023-04-20T00:48:10;100773.97;;;10.54;81.33
21276;BME280;36472;52.170;20.884;2023-04-20T00:50:40;100768.72;;;10.54;81.30
21276;BME280;36472;52.170;20.884;2023-04-20T00:53:10;100767.53;;;10.59;81.27
21276;BME280;36472;52.170;20.884;2023-04-20T00:55:43;100767.22;;;10.64;81.00
21276;BME280;36472;52.170;20.884;2023-04-20T00:58:13;100774.75;;;10.70;80.84
21276;BME280;36472;52.170;20.884;2023-04-20T01:00:42;100772.97;;;10.71;80.46
21276;BME280;36472;52.170;20.884;2023-04-20T01:03:11;100774.00;;;10.68;80.43
21276;BME280;36472;52.170;20.884;2023-04-20T01:05:42;100770.34;;;10.71;80.70
21276;BME280;36472;52.170;20.884;2023-04-20T01:08:11;100766.69;;;10.73;80.48
21276;BME280;36472;52.170;20.884;2023-04-20T01:10:40;100777.38;;;10.70;80.57
21276;BME280;36472;52.170;20.884;2023-04-20T01:13:09;100773.06;;;10.69;80.97
21276;BME280;36472;52.170;20.884;2023-04-20T01:15:37;100768.56;;;10.71;80.73
21276;BME280;36472;52.170;20.884;2023-04-20T01:18:08;100770.16;;;10.74;80.70
21276;BME280;36472;52.170;20.884;2023-04-20T01:20:38;100776.16;;;10.76;80.83
21276;BME280;36472;52.170;20.884;2023-04-20T01:23:08;100772.88;;;10.72;81.14
21276;BME280;36472;52.170;20.884;2023-04-20T01:25:37;100775.31;;;10.75;81.21
21276;BME280;36472;52.170;20.884;2023-04-20T01:28:06;100761.25;;;10.76;80.78
21276;BME280;36472;52.170;20.884;2023-04-20T01:30:36;100763.88;;;10.76;80.64
21276;BME280;36472;52.170;20.884;2023-04-20T01:33:06;100759.38;;;10.78;81.09
21276;BME280;36472;52.170;20.884;2023-04-20T01:35:34;100768.75;;;10.82;81.11
21276;BME280;36472;52.170;20.884;2023-04-20T01:38:03;100763.41;;;10.84;80.35
21276;BME280;36472;52.170;20.884;2023-04-20T01:40:34;100762.41;;;10.87;80.72
21276;BME280;36472;52.170;20.884;2023-04-20T01:43:03;100767.34;;;10.91;81.00
21276;BME280;36472;52.170;20.884;2023-04-20T01:45:31;100761.06;;;10.94;80.70
21276;BME280;36472;52.170;20.884;2023-04-20T01:48:01;100766.25;;;10.95;80.58
21276;BME280;36472;52.170;20.884;2023-04-20T01:50:30;100762.66;;;10.96;81.03
21276;BME280;36472;52.170;20.884;2023-04-20T01:52:58;100768.69;;;10.98;80.88
21276;BME280;36472;52.170;20.884;2023-04-20T01:55:27;100764.28;;;10.99;80.13
21276;BME280;36472;52.170;20.884;2023-04-20T01:57:58;100763.88;;;11.05;79.98
21276;BME280;36472;52.170;20.884;2023-04-20T02:00:26;100766.41;;;11.07;79.96
21276;BME280;36472;52.170;20.884;2023-04-20T02:02:55;100761.94;;;11.09;80.09
21276;BME280;36472;52.170;20.884;2023-04-20T02:05:24;100766.22;;;11.10;79.38
21276;BME280;36472;52.170;20.884;2023-04-20T02:07:57;100773.94;;;11.13;79.78
21276;BME280;36472;52.170;20.884;2023-04-20T02:10:26;100772.31;;;11.10;80.08
21276;BME280;36472;52.170;20.884;2023-04-20T02:12:54;100767.84;;;11.12;80.32
21276;BME280;36472;52.170;20.884;2023-04-20T02:15:25;100766.69;;;11.16;79.98
21276;BME280;36472;52.170;20.884;2023-04-20T02:17:54;100769.41;;;11.15;79.97
21276;BME280;36472;52.170;20.884;2023-04-20T02:20:23;100766.59;;;11.18;80.40
21276;BME280;36472;52.170;20.884;2023-04-20T02:22:53;100773.56;;;11.19;80.73
21276;BME280;36472;52.170;20.884;2023-04-20T02:25:21;100768.41;;;11.17;79.84
21276;BME280;36472;52.170;20.884;2023-04-20T02:27:51;100764.63;;;11.21;79.23
21276;BME280;36472;52.170;20.884;2023-04-20T02:30:20;100771.88;;;11.18;79.11
21276;BME280;36472;52.170;20.884;2023-04-20T02:32:50;100770.94;;;11.19;79.51
21276;BME280;36472;52.170;20.884;2023-04-20T02:35:19;100776.94;;;11.21;80.41
21276;BME280;36472;52.170;20.884;2023-04-20T02:37:48;100778.84;;;11.19;80.02
21276;BME280;36472;52.170;20.884;2023-04-20T02:40:17;100771.03;;;11.17;79.81
21276;BME280;36472;52.170;20.884;2023-04-20T02:42:47;100773.84;;;11.14;80.37
21276;BME280;36472;52.170;20.884;2023-04-20T02:45:16;100775.81;;;11.11;79.85
21276;BME280;36472;52.170;20.884;2023-04-20T02:47:46;100773.47;;;11.06;80.30
21276;BME280;36472;52.170;20.884;2023-04-20T02:50:18;100777.03;;;11.05;80.49
21276;BME280;36472;52.170;20.884;2023-04-20T02:53:04;100778.16;;;11.01;80.47
21276;BME280;36472;52.170;20.884;2023-04-20T02:55:35;100772.25;;;10.97;80.08
21276;BME280;36472;52.170;20.884;2023-04-20T02:58:14;100774.69;;;11.00;80.37
21276;BME280;36472;52.170;20.884;2023-04-20T03:01:09;100776.28;;;11.03;79.86
21276;BME280;36472;52.170;20.884;2023-04-20T03:03:39;100773.75;;;11.01;79.56
21276;BME280;36472;52.170;20.884;2023-04-20T03:06:12;100770.28;;;11.01;80.13
21276;BME280;36472;52.170;20.884;2023-04-20T03:08:46;100779.97;;;11.00;80.40
21276;BME280;36472;52.170;20.884;2023-04-20T03:11:33;100777.41;;;10.99;80.56
21276;BME280;36472;52.170;20.884;2023-04-20T03:14:03;100777.41;;;10.99;79.75
21276;BME280;36472;52.170;20.884;2023-04-20T03:16:33;100776.69;;;10.97;79.88
21276;BME280;36472;52.170;20.884;2023-04-20T03:19:04;100777.25;;;11.02;79.43
21276;BME280;36472;52.170;20.884;2023-04-20T03:21:34;100786.88;;;11.01;79.97
21276;BME280;36472;52.170;20.884;2023-04-20T03:24:04;100782.41;;;11.03;79.83
21276;BME280;36472;52.170;20.884;2023-04-20T03:26:33;100784.91;;;11.05;79.39
21276;BME280;36472;52.170;20.884;2023-04-20T03:29:12;100781.34;;;11.06;79.42
21276;BME280;36472;52.170;20.884;2023-04-20T03:31:41;100776.84;;;11.08;79.07
21276;BME280;36472;52.170;20.884;2023-04-20T03:34:11;100780.03;;;11.13;79.36
21276;BME280;36472;52.170;20.884;2023-04-20T03:36:42;100776.00;;;11.08;79.87
21276;BME280;36472;52.170;20.884;2023-04-20T03:39:11;100784.72;;;11.08;81.06
21276;BME280;36472;52.170;20.884;2023-04-20T03:41:39;100782.84;;;11.10;81.29
21276;BME280;36472;52.170;20.884;2023-04-20T03:44:08;100789.72;;;11.13;80.32
21276;BME280;36472;52.170;20.884;2023-04-20T03:46:37;100785.13;;;11.16;81.43
21276;BME280;36472;52.170;20.884;2023-04-20T03:49:06;100785.38;;;11.12;81.05
21276;BME280;36472;52.170;20.884;2023-04-20T03:51:35;100789.72;;;11.13;81.01
21276;BME280;36472;52.170;20.884;2023-04-20T03:54:07;100791.31;;;11.15;80.94
21276;BME280;36472;52.170;20.884;2023-04-20T03:56:36;100796.47;;;11.17;80.79
21276;BME280;36472;52.170;20.884;2023-04-20T03:59:05;100793.28;;;11.12;80.59
21276;BME280;36472;52.170;20.884;2023-04-20T04:01:35;100791.44;;;11.14;81.05
21276;BME280;36472;52.170;20.884;2023-04-20T04:04:05;100787.94;;;11.13;80.63
21276;BME280;36472;52.170;20.884;2023-04-20T04:06:34;100794.16;;;11.12;80.49
21276;BME280;36472;52.170;20.884;2023-04-20T04:09:03;100788.03;;;11.12;80.48
21276;BME280;36472;52.170;20.884;2023-04-20T04:11:34;100794.31;;;11.09;81.72
21276;BME280;36472;52.170;20.884;2023-04-20T04:14:03;100798.53;;;11.12;81.43
21276;BME280;36472;52.170;20.884;2023-04-20T04:16:35;100802.31;;;11.08;81.48
21276;BME280;36472;52.170;20.884;2023-04-20T04:19:04;100804.94;;;11.08;81.54
21276;BME280;36472;52.170;20.884;2023-04-20T04:21:33;100807.38;;;11.11;81.16
21276;BME280;36472;52.170;20.884;2023-04-20T04:24:05;100812.00;;;11.07;80.47
21276;BME280;36472;52.170;20.884;2023-04-20T04:26:54;100815.38;;;11.09;80.70
21276;BME280;36472;52.170;20.884;2023-04-20T04:29:27;100812.34;;;11.15;80.57
21276;BME280;36472;52.170;20.884;2023-04-20T04:32:02;100815.75;;;11.17;80.87
21276;BME280;36472;52.170;20.884;2023-04-20T04:34:31;100817.34;;;11.20;80.52
21276;BME280;36472;52.170;20.884;2023-04-20T04:37:02;100824.13;;;11.24;79.69
21276;BME280;36472;52.170;20.884;2023-04-20T04:39:45;100818.66;;;11.27;80.25
21276;BME280;36472;52.170;20.884;2023-04-20T04:42:27;100819.03;;;11.35;80.81
21276;BME280;36472;52.170;20.884;2023-04-20T04:44:59;100823.91;;;11.41;80.70
21276;BME280;36472;52.170;20.884;2023-04-20T04:47:34;100818.38;;;11.46;80.03
21276;BME280;36472;52.170;20.884;2023-04-20T04:50:05;100825.13;;;11.50;79.37
21276;BME280;36472;52.170;20.884;2023-04-20T04:52:34;100824.06;;;11.53;79.08
21276;BME280;36472;52.170;20.884;2023-04-20T04:55:04;100821.16;;;11.57;79.55
21276;BME280;36472;52.170;20.884;2023-04-20T04:57:36;100829.72;;;11.61;79.39
21276;BME280;36472;52.170;20.884;2023-04-20T05:00:07;100827.63;;;11.66;78.71
21276;BME280;36472;52.170;20.884;2023-04-20T05:02:38;100830.00;;;11.71;77.71
21276;BME280;36472;52.170;20.884;2023-04-20T05:05:08;100828.56;;;11.79;76.74
21276;BME280;36472;52.170;20.884;2023-04-20T05:07:37;100831.66;;;11.86;76.29
21276;BME280;36472;52.170;20.884;2023-04-20T05:10:07;100833.06;;;11.92;76.21
21276;BME280;36472;52.170;20.884;2023-04-20T05:12:38;100831.94;;;11.96;75.83
21276;BME280;36472;52.170;20.884;2023-04-20T05:15:08;100833.97;;;12.05;75.50
21276;BME280;36472;52.170;20.884;2023-04-20T05:17:37;100830.84;;;12.13;75.27
21276;BME280;36472;52.170;20.884;2023-04-20T05:20:07;100848.16;;;12.17;74.44
21276;BME280;36472;52.170;20.884;2023-04-20T05:22:37;100843.13;;;12.27;74.41
21276;BME280;36472;52.170;20.884;2023-04-20T05:25:07;100841.78;;;12.34;73.41
21276;BME280;36472;52.170;20.884;2023-04-20T05:27:40;100846.75;;;12.39;73.39
21276;BME280;36472;52.170;20.884;2023-04-20T05:30:10;100852.34;;;12.47;73.20
21276;BME280;36472;52.170;20.884;2023-04-20T05:32:48;100856.09;;;12.57;73.19
21276;BME280;36472;52.170;20.884;2023-04-20T05:35:19;100854.63;;;12.66;73.29
21276;BME280;36472;52.170;20.884;2023-04-20T05:37:48;100859.56;;;12.70;72.43
21276;BME280;36472;52.170;20.884;2023-04-20T05:40:18;100855.59;;;12.78;72.82
21276;BME280;36472;52.170;20.884;2023-04-20T05:42:48;100861.09;;;12.87;72.35
21276;BME280;36472;52.170;20.884;2023-04-20T05:45:17;100861.31;;;12.97;71.97
21276;BME280;36472;52.170;20.884;2023-04-20T05:47:52;100863.75;;;13.13;70.74
21276;BME280;36472;52.170;20.884;2023-04-20T05:50:22;100864.59;;;13.26;71.09
21276;BME280;36472;52.170;20.884;2023-04-20T05:52:52;100871.28;;;13.45;70.26
21276;BME280;36472;52.170;20.884;2023-04-20T05:55:22;100866.47;;;13.76;69.17
21276;BME280;36472;52.170;20.884;2023-04-20T05:57:52;100866.06;;;14.06;68.72
21276;BME280;36472;52.170;20.884;2023-04-20T06:00:21;100863.34;;;14.19;67.39
21276;BME280;36472;52.170;20.884;2023-04-20T06:02:52;100870.97;;;14.24;67.46
21276;BME280;36472;52.170;20.884;2023-04-20T06:05:22;100866.56;;;14.35;67.06
21276;BME280;36472;52.170;20.884;2023-04-20T06:07:51;100876.81;;;14.40;65.63
21276;BME280;36472;52.170;20.884;2023-04-20T06:10:20;100879.47;;;14.40;64.63
21276;BME280;36472;52.170;20.884;2023-04-20T06:12:49;100880.06;;;14.44;64.59
21276;BME280;36472;52.170;20.884;2023-04-20T06:15:19;100885.38;;;14.44;64.26
21276;BME280;36472;52.170;20.884;2023-04-20T06:17:48;100887.19;;;14.54;64.66
21276;BME280;36472;52.170;20.884;2023-04-20T06:20:17;100886.94;;;14.70;64.23
21276;BME280;36472;52.170;20.884;2023-04-20T06:22:47;100895.25;;;14.77;64.45
21276;BME280;36472;52.170;20.884;2023-04-20T06:25:16;100891.22;;;14.95;63.02
21276;BME280;36472;52.170;20.884;2023-04-20T06:27:44;100895.34;;;15.11;61.90
21276;BME280;36472;52.170;20.884;2023-04-20T06:30:15;100894.28;;;15.25;61.64
21276;BME280;36472;52.170;20.884;2023-04-20T06:32:45;100894.66;;;15.31;61.07
21276;BME280;36472;52.170;20.884;2023-04-20T06:35:15;100888.03;;;15.26;59.79
21276;BME280;36472;52.170;20.884;2023-04-20T06:37:44;100884.78;;;15.33;60.56
21276;BME280;36472;52.170;20.884;2023-04-20T06:40:13;100884.31;;;15.51;60.16
21276;BME280;36472;52.170;20.884;2023-04-20T06:42:42;100886.88;;;15.75;59.23
21276;BME280;36472;52.170;20.884;2023-04-20T06:45:11;100883.59;;;15.94;57.90
21276;BME280;36472;52.170;20.884;2023-04-20T06:47:40;100882.59;;;16.06;57.75
21276;BME280;36472;52.170;20.884;2023-04-20T06:50:11;100881.25;;;16.12;55.42
21276;BME280;36472;52.170;20.884;2023-04-20T06:52:40;100885.94;;;16.20;54.89
21276;BME280;36472;52.170;20.884;2023-04-20T06:55:10;100888.81;;;16.28;55.46
21276;BME280;36472;52.170;20.884;2023-04-20T06:57:39;100889.06;;;16.25;53.67
21276;BME280;36472;52.170;20.884;2023-04-20T07:00:12;100891.41;;;16.39;53.27
21276;BME280;36472;52.170;20.884;2023-04-20T07:02:45;100900.31;;;16.50;51.04
21276;BME280;36472;52.170;20.884;2023-04-20T07:05:17;100897.97;;;16.68;51.52
21276;BME280;36472;52.170;20.884;2023-04-20T07:07:46;100894.50;;;16.88;51.00
21276;BME280;36472;52.170;20.884;2023-04-20T07:10:15;100892.88;;;16.97;50.21
21276;BME280;36472;52.170;20.884;2023-04-20T07:12:44;100889.72;;;17.03;49.53
21276;BME280;36472;52.170;20.884;2023-04-20T07:15:13;100898.06;;;17.19;49.51
21276;BME280;36472;52.170;20.884;2023-04-20T07:17:42;100893.50;;;17.31;49.46
21276;BME280;36472;52.170;20.884;2023-04-20T07:20:11;100895.06;;;17.34;50.20
21276;BME280;36472;52.170;20.884;2023-04-20T07:22:41;100901.66;;;17.39;49.73
21276;BME280;36472;52.170;20.884;2023-04-20T07:25:10;100892.31;;;17.45;48.87
21276;BME280;36472;52.170;20.884;2023-04-20T07:27:40;100898.81;;;17.62;48.49
21276;BME280;36472;52.170;20.884;2023-04-20T07:30:10;100899.00;;;17.70;48.76
21276;BME280;36472;52.170;20.884;2023-04-20T07:32:40;100898.59;;;17.75;47.51
21276;BME280;36472;52.170;20.884;2023-04-20T07:35:10;100902.88;;;17.87;47.86
21276;BME280;36472;52.170;20.884;2023-04-20T07:37:38;100903.19;;;18.04;48.15
21276;BME280;36472;52.170;20.884;2023-04-20T07:40:10;100906.41;;;18.17;46.70
21276;BME280;36472;52.170;20.884;2023-04-20T07:42:39;100905.47;;;18.28;46.38
21276;BME280;36472;52.170;20.884;2023-04-20T07:45:10;100902.28;;;18.44;47.58
21276;BME280;36472;52.170;20.884;2023-04-20T07:47:39;100906.47;;;18.56;47.21
21276;BME280;36472;52.170;20.884;2023-04-20T07:50:10;100898.34;;;18.67;46.77
21276;BME280;36472;52.170;20.884;2023-04-20T07:52:39;100898.19;;;18.79;46.51
21276;BME280;36472;52.170;20.884;2023-04-20T07:55:10;100903.00;;;18.85;47.08
21276;BME280;36472;52.170;20.884;2023-04-20T07:57:40;100905.94;;;19.01;45.92
21276;BME280;36472;52.170;20.884;2023-04-20T08:00:11;100905.19;;;19.09;45.39
21276;BME280;36472;52.170;20.884;2023-04-20T08:02:40;100905.19;;;19.19;45.41
21276;BME280;36472;52.170;20.884;2023-04-20T08:05:09;100902.91;;;19.24;44.73
21276;BME280;36472;52.170;20.884;2023-04-20T08:07:39;100895.75;;;19.24;44.26
21276;BME280;36472;52.170;20.884;2023-04-20T08:10:10;100903.31;;;19.29;44.84
21276;BME280;36472;52.170;20.884;2023-04-20T08:12:39;100894.56;;;19.47;44.33
21276;BME280;36472;52.170;20.884;2023-04-20T08:15:09;100899.97;;;19.65;44.28
21276;BME280;36472;52.170;20.884;2023-04-20T08:17:38;100899.94;;;19.74;42.97
21276;BME280;36472;52.170;20.884;2023-04-20T08:20:08;100893.34;;;19.78;43.28
21276;BME280;36472;52.170;20.884;2023-04-20T08:22:37;100893.22;;;19.80;42.07
21276;BME280;36472;52.170;20.884;2023-04-20T08:25:09;100904.19;;;19.95;42.94
21276;BME280;36472;52.170;20.884;2023-04-20T08:27:37;100899.50;;;20.07;42.84
21276;BME280;36472;52.170;20.884;2023-04-20T08:30:07;100897.69;;;20.07;42.19
21276;BME280;36472;52.170;20.884;2023-04-20T08:32:37;100900.81;;;20.21;42.07
21276;BME280;36472;52.170;20.884;2023-04-20T08:35:07;100898.31;;;20.37;40.56
21276;BME280;36472;52.170;20.884;2023-04-20T08:37:36;100901.50;;;20.41;41.39
21276;BME280;36472;52.170;20.884;2023-04-20T08:40:09;100902.34;;;20.59;42.52
21276;BME280;36472;52.170;20.884;2023-04-20T08:42:38;100898.03;;;20.76;39.94
21276;BME280;36472;52.170;20.884;2023-04-20T08:45:07;100895.72;;;20.81;39.63
21276;BME280;36472;52.170;20.884;2023-04-20T08:47:37;100899.44;;;20.88;38.62
21276;BME280;36472;52.170;20.884;2023-04-20T08:50:07;100899.44;;;21.06;38.60
21276;BME280;36472;52.170;20.884;2023-04-20T08:52:37;100901.31;;;21.14;36.81
21276;BME280;36472;52.170;20.884;2023-04-20T08:55:08;100893.03;;;21.25;37.96
21276;BME280;36472;52.170;20.884;2023-04-20T08:57:37;100890.78;;;21.39;37.94
21276;BME280;36472;52.170;20.884;2023-04-20T09:00:08;100904.91;;;21.49;39.43
21276;BME280;36472;52.170;20.884;2023-04-20T09:02:48;100885.75;;;21.36;37.15
21276;BME280;36472;52.170;20.884;2023-04-20T09:05:25;100885.84;;;21.26;37.97
21276;BME280;36472;52.170;20.884;2023-04-20T09:07:57;100888.34;;;21.27;36.52
21276;BME280;36472;52.170;20.884;2023-04-20T09:10:40;100896.63;;;21.16;37.28
21276;BME280;36472;52.170;20.884;2023-04-20T09:13:20;100894.44;;;21.11;37.22
21276;BME280;36472;52.170;20.884;2023-04-20T09:15:49;100894.03;;;20.98;37.61
21276;BME280;36472;52.170;20.884;2023-04-20T09:18:18;100900.03;;;20.74;37.14
21276;BME280;36472;52.170;20.884;2023-04-20T09:20:48;100883.63;;;21.21;37.16
21276;BME280;36472;52.170;20.884;2023-04-20T09:23:19;100891.03;;;21.96;35.50
21276;BME280;36472;52.170;20.884;2023-04-20T09:25:51;100894.81;;;21.77;35.36
21276;BME280;36472;52.170;20.884;2023-04-20T09:28:20;100895.78;;;21.68;34.91
21276;BME280;36472;52.170;20.884;2023-04-20T09:30:49;100894.19;;;22.34;33.93
21276;BME280;36472;52.170;20.884;2023-04-20T09:33:18;100900.00;;;23.04;32.57
21276;BME280;36472;52.170;20.884;2023-04-20T09:35:47;100897.13;;;23.38;31.66
21276;BME280;36472;52.170;20.884;2023-04-20T09:38:16;100897.25;;;24.01;33.03
21276;BME280;36472;52.170;20.884;2023-04-20T09:40:45;100897.53;;;24.60;29.88
21276;BME280;36472;52.170;20.884;2023-04-20T09:43:19;100897.72;;;24.97;29.91
21276;BME280;36472;52.170;20.884;2023-04-20T09:45:53;100899.19;;;25.37;29.67
21276;BME280;36472;52.170;20.884;2023-04-20T09:48:23;100906.75;;;25.19;28.30
21276;BME280;36472;52.170;20.884;2023-04-20T09:50:53;100894.16;;;25.34;28.75
21276;BME280;36472;52.170;20.884;2023-04-20T09:53:24;100902.78;;;25.60;28.80
21276;BME280;36472;52.170;20.884;2023-04-20T09:55:54;100894.44;;;25.39;27.77
21276;BME280;36472;52.170;20.884;2023-04-20T09:58:24;100901.94;;;25.14;27.83
21276;BME280;36472;52.170;20.884;2023-04-20T10:00:54;100897.44;;;24.92;28.52
21276;BME280;36472;52.170;20.884;2023-04-20T10:03:23;100889.81;;;24.80;29.67
21276;BME280;36472;52.170;20.884;2023-04-20T10:05:53;100893.00;;;25.14;30.42
21276;BME280;36472;52.170;20.884;2023-04-20T10:08:22;100898.25;;;24.77;30.19
21276;BME280;36472;52.170;20.884;2023-04-20T10:10:52;100893.03;;;24.53;27.96
21276;BME280;36472;52.170;20.884;2023-04-20T10:13:33;100893.63;;;24.86;28.00
21276;BME280;36472;52.170;20.884;2023-04-20T10:16:02;100889.22;;;25.23;28.79
21276;BME280;36472;52.170;20.884;2023-04-20T10:18:31;100883.13;;;25.29;28.85
21276;BME280;36472;52.170;20.884;2023-04-20T10:21:06;100885.09;;;25.50;28.46
21276;BME280;36472;52.170;20.884;2023-04-20T10:23:47;100889.25;;;25.53;27.02
21276;BME280;36472;52.170;20.884;2023-04-20T10:26:16;100891.88;;;24.55;28.14
21276;BME280;36472;52.170;20.884;2023-04-20T10:28:47;100891.19;;;23.59;28.94
21276;BME280;36472;52.170;20.884;2023-04-20T10:31:16;100887.66;;;22.86;28.72
21276;BME280;36472;52.170;20.884;2023-04-20T10:33:51;100875.19;;;23.26;29.94
21276;BME280;36472;52.170;20.884;2023-04-20T10:36:28;100879.31;;;24.24;28.92
21276;BME280;36472;52.170;20.884;2023-04-20T10:38:59;100884.81;;;24.54;27.70
21276;BME280;36472;52.170;20.884;2023-04-20T10:41:31;100873.25;;;25.07;27.85
21276;BME280;36472;52.170;20.884;2023-04-20T10:44:08;100877.41;;;24.33;27.72
21276;BME280;36472;52.170;20.884;2023-04-20T10:46:37;100877.03;;;23.74;27.89
21276;BME280;36472;52.170;20.884;2023-04-20T10:49:06;100873.91;;;24.01;27.69
21276;BME280;36472;52.170;20.884;2023-04-20T10:51:35;100867.63;;;24.63;27.55
21276;BME280;36472;52.170;20.884;2023-04-20T10:54:06;100861.69;;;25.06;25.84
21276;BME280;36472;52.170;20.884;2023-04-20T10:56:41;100859.00;;;25.51;26.32
21276;BME280;36472;52.170;20.884;2023-04-20T10:59:14;100863.06;;;25.76;26.13
21276;BME280;36472;52.170;20.884;2023-04-20T11:01:45;100864.03;;;25.90;25.99
21276;BME280;36472;52.170;20.884;2023-04-20T11:04:14;100862.22;;;25.76;25.86
21276;BME280;36472;52.170;20.884;2023-04-20T11:06:46;100862.31;;;25.83;26.02
21276;BME280;36472;52.170;20.884;2023-04-20T11:09:17;100859.66;;;25.23;25.65
21276;BME280;36472;52.170;20.884;2023-04-20T11:11:57;100866.41;;;25.04;24.80
21276;BME280;36472;52.170;20.884;2023-04-20T11:14:30;100867.91;;;25.22;24.70
21276;BME280;36472;52.170;20.884;2023-04-20T11:17:00;100864.22;;;25.52;25.54
21276;BME280;36472;52.170;20.884;2023-04-20T11:19:31;100861.50;;;25.67;25.31
21276;BME280;36472;52.170;20.884;2023-04-20T11:22:03;100875.84;;;25.00;25.35
21276;BME280;36472;52.170;20.884;2023-04-20T11:24:33;100870.72;;;24.90;24.33
21276;BME280;36472;52.170;20.884;2023-04-20T11:27:04;100860.75;;;25.14;25.16
21276;BME280;36472;52.170;20.884;2023-04-20T11:29:36;100863.63;;;25.72;23.86
21276;BME280;36472;52.170;20.884;2023-04-20T11:32:08;100854.66;;;26.01;23.71
21276;BME280;36472;52.170;20.884;2023-04-20T11:34:38;100854.16;;;26.12;23.85
21276;BME280;36472;52.170;20.884;2023-04-20T11:37:09;100855.03;;;25.32;24.22
21276;BME280;36472;52.170;20.884;2023-04-20T11:39:40;100858.59;;;24.94;24.98
21276;BME280;36472;52.170;20.884;2023-04-20T11:42:09;100849.44;;;25.04;25.42
21276;BME280;36472;52.170;20.884;2023-04-20T11:44:39;100854.06;;;24.95;24.73
21276;BME280;36472;52.170;20.884;2023-04-20T11:47:08;100843.69;;;25.51;24.20
21276;BME280;36472;52.170;20.884;2023-04-20T11:49:37;100847.69;;;25.92;23.52
21276;BME280;36472;52.170;20.884;2023-04-20T11:52:06;100839.91;;;26.40;23.99
21276;BME280;36472;52.170;20.884;2023-04-20T11:54:35;100838.06;;;26.62;23.16
21276;BME280;36472;52.170;20.884;2023-04-20T11:57:04;100845.34;;;26.25;24.16
21276;BME280;36472;52.170;20.884;2023-04-20T11:59:33;100842.88;;;25.87;24.31
21276;BME280;36472;52.170;20.884;2023-04-20T12:02:04;100831.38;;;25.27;23.78
21276;BME280;36472;52.170;20.884;2023-04-20T12:04:32;100837.72;;;24.81;24.90
21276;BME280;36472;52.170;20.884;2023-04-20T12:07:02;100837.47;;;24.30;24.85
21276;BME280;36472;52.170;20.884;2023-04-20T12:09:31;100836.94;;;23.80;26.06
21276;BME280;36472;52.170;20.884;2023-04-20T12:12:04;100835.22;;;23.56;26.87
21276;BME280;36472;52.170;20.884;2023-04-20T12:14:33;100828.44;;;23.37;26.16
21276;BME280;36472;52.170;20.884;2023-04-20T12:17:04;100830.16;;;23.22;26.65
21276;BME280;36472;52.170;20.884;2023-04-20T12:19:33;100827.81;;;22.94;28.65
21276;BME280;36472;52.170;20.884;2023-04-20T12:22:02;100829.19;;;22.73;27.43
21276;BME280;36472;52.170;20.884;2023-04-20T12:24:31;100830.56;;;22.61;28.26
21276;BME280;36472;52.170;20.884;2023-04-20T12:27:00;100824.03;;;22.64;27.00
21276;BME280;36472;52.170;20.884;2023-04-20T12:29:30;100818.53;;;22.57;25.82
21276;BME280;36472;52.170;20.884;2023-04-20T12:31:59;100825.91;;;22.47;26.17
21276;BME280;36472;52.170;20.884;2023-04-20T12:34:30;100822.53;;;22.28;27.24
21276;BME280;36472;52.170;20.884;2023-04-20T12:36:59;100823.50;;;22.19;27.48
21276;BME280;36472;52.170;20.884;2023-04-20T12:39:28;100821.78;;;22.01;26.40
21276;BME280;36472;52.170;20.884;2023-04-20T12:41:56;100821.75;;;21.77;27.49
21276;BME280;36472;52.170;20.884;2023-04-20T12:44:25;100819.03;;;21.60;28.58
21276;BME280;36472;52.170;20.884;2023-04-20T12:46:54;100822.72;;;21.33;27.74
21276;BME280;36472;52.170;20.884;2023-04-20T12:49:23;100818.63;;;21.13;28.65
21276;BME280;36472;52.170;20.884;2023-04-20T12:51:53;100818.59;;;21.04;29.83
21276;BME280;36472;52.170;20.884;2023-04-20T12:54:22;100816.69;;;20.97;28.78
21276;BME280;36472;52.170;20.884;2023-04-20T12:56:51;100815.81;;;20.88;29.17